createdAt,value
2022-11-06T00:00:49.890Z,2.50
2022-11-06T00:03:18.188Z,4.70
2022-11-06T00:06:04.142Z,3.13
2022-11-06T00:08:35.685Z,6.80
2022-11-06T00:11:06.143Z,6.87
2022-11-06T00:13:38.617Z,3.37
2022-11-06T00:16:10.288Z,4.40
2022-11-06T00:18:42.277Z,3.17
2022-11-06T00:21:13.968Z,4.50
2022-11-06T00:23:43.669Z,3.60
2022-11-06T00:26:14.043Z,4.07
2022-11-06T00:28:45.255Z,5.53
2022-11-06T00:31:15.628Z,7.83
2022-11-06T00:33:45.532Z,4.23
2022-11-06T00:36:15.988Z,7.27
2022-11-06T00:38:45.625Z,3.80
2022-11-06T00:41:16.180Z,5.10
2022-11-06T00:43:50.963Z,6.07
2022-11-06T00:46:19.806Z,4.97
2022-11-06T00:48:50.060Z,4.70
2022-11-06T00:51:20.152Z,5.20
2022-11-06T00:53:49.808Z,3.33
2022-11-06T00:56:21.059Z,5.53
2022-11-06T00:58:52.986Z,3.93
2022-11-06T01:01:24.171Z,3.50
2022-11-06T01:03:57.465Z,3.10
2022-11-06T01:06:26.443Z,6.43
2022-11-06T01:08:58.178Z,5.00
2022-11-06T01:11:46.469Z,3.30
2022-11-06T01:14:24.310Z,5.10
2022-11-06T01:16:56.112Z,3.30
2022-11-06T01:19:27.849Z,4.80
2022-11-06T01:21:59.424Z,4.07
2022-11-06T01:24:31.790Z,2.80
2022-11-06T01:29:55.726Z,5.90
2022-11-06T01:32:26.891Z,4.33
2022-11-06T01:34:56.758Z,4.90
2022-11-06T01:37:27.810Z,3.30
2022-11-06T01:39:57.238Z,4.00
2022-11-06T01:42:28.467Z,4.90
2022-11-06T01:45:20.506Z,3.77
2022-11-06T01:47:53.223Z,5.17
2022-11-06T01:50:24.357Z,3.13
2022-11-06T01:52:55.766Z,5.33
2022-11-06T01:55:30.876Z,4.80
2022-11-06T01:58:02.536Z,4.80
2022-11-06T02:00:33.910Z,7.13
2022-11-06T02:03:04.090Z,4.10
2022-11-06T02:05:34.480Z,3.80
2022-11-06T02:08:05.143Z,3.03
2022-11-06T02:10:33.695Z,5.17
2022-11-06T02:13:16.818Z,4.07
2022-11-06T02:15:47.878Z,2.73
2022-11-06T02:18:23.631Z,4.83
2022-11-06T02:20:59.976Z,4.40
2022-11-06T02:23:38.183Z,4.00
2022-11-06T02:26:11.303Z,3.20
2022-11-06T02:28:44.498Z,3.63
2022-11-06T02:31:16.319Z,3.80
2022-11-06T02:33:46.347Z,4.40
2022-11-06T02:36:17.843Z,4.60
2022-11-06T02:38:51.315Z,3.13
2022-11-06T02:41:21.990Z,4.37
2022-11-06T02:43:55.820Z,5.80
2022-11-06T02:46:26.399Z,4.00
2022-11-06T02:48:59.935Z,3.87
2022-11-06T02:51:30.545Z,3.83
2022-11-06T02:54:03.435Z,3.90
2022-11-06T02:56:34.803Z,7.50
2022-11-06T02:59:07.019Z,2.27
2022-11-06T03:01:40.177Z,5.37
2022-11-06T03:04:12.858Z,3.43
2022-11-06T03:06:43.693Z,3.87
2022-11-06T03:09:13.696Z,3.93
2022-11-06T03:11:42.050Z,4.13
2022-11-06T03:14:16.875Z,3.57
2022-11-06T03:16:49.379Z,4.03
2022-11-06T03:19:25.092Z,5.77
2022-11-06T03:21:55.966Z,4.80
2022-11-06T03:24:31.206Z,3.67
2022-11-06T03:27:02.811Z,4.10
2022-11-06T03:29:38.831Z,3.40
2022-11-06T03:32:09.961Z,5.13
2022-11-06T03:34:43.531Z,2.60
2022-11-06T03:37:13.783Z,4.10
2022-11-06T03:39:46.735Z,3.90
2022-11-06T03:42:16.988Z,3.13
2022-11-06T03:44:49.477Z,3.17
2022-11-06T03:47:20.546Z,2.80
2022-11-06T03:49:53.349Z,4.07
2022-11-06T03:52:26.323Z,2.60
2022-11-06T03:54:56.706Z,4.90
2022-11-06T03:57:27.374Z,2.40
2022-11-06T04:00:00.120Z,4.33
2022-11-06T04:02:33.693Z,3.60
2022-11-06T04:05:04.630Z,6.63
2022-11-06T04:07:35.624Z,6.37
2022-11-06T04:10:25.798Z,4.33
2022-11-06T04:13:25.907Z,3.07
2022-11-06T04:15:57.834Z,4.77
2022-11-06T04:18:28.160Z,3.80
2022-11-06T04:21:19.423Z,2.90
2022-11-06T04:24:09.311Z,3.20
2022-11-06T04:26:40.975Z,2.70
2022-11-06T04:29:14.832Z,4.03
2022-11-06T04:31:49.031Z,3.37
2022-11-06T04:34:22.828Z,3.30
2022-11-06T04:36:52.519Z,4.07
2022-11-06T04:39:24.171Z,4.77
2022-11-06T04:41:54.741Z,5.13
2022-11-06T04:44:26.547Z,3.67
2022-11-06T04:46:57.928Z,4.50
2022-11-06T04:49:26.351Z,4.07
2022-11-06T04:51:54.851Z,3.00
2022-11-06T04:54:23.596Z,3.03
2022-11-06T04:56:52.160Z,3.83
2022-11-06T04:59:20.455Z,2.40
2022-11-06T05:01:48.791Z,3.63
2022-11-06T05:04:18.513Z,2.63
2022-11-06T05:06:46.791Z,2.60
2022-11-06T05:09:15.132Z,2.00
2022-11-06T05:11:43.404Z,2.37
2022-11-06T05:14:11.668Z,2.57
2022-11-06T05:16:39.904Z,5.23
2022-11-06T05:19:08.186Z,4.90
2022-11-06T05:21:55.239Z,3.53
2022-11-06T05:24:23.580Z,3.20
2022-11-06T05:26:57.888Z,2.50
2022-11-06T05:29:27.556Z,3.50
2022-11-06T05:31:55.816Z,3.77
2022-11-06T05:34:24.105Z,2.60
2022-11-06T05:36:53.755Z,2.50
2022-11-06T05:39:22.169Z,4.00
2022-11-06T05:41:50.425Z,4.50
2022-11-06T05:44:18.750Z,2.43
2022-11-06T05:46:49.400Z,2.30
2022-11-06T05:49:18.249Z,2.60
2022-11-06T05:51:46.540Z,2.70
2022-11-06T05:54:16.532Z,3.13
2022-11-06T05:56:44.786Z,3.73
2022-11-06T05:59:13.163Z,2.60
2022-11-06T06:01:41.632Z,2.50
2022-11-06T06:04:10.147Z,3.47
2022-11-06T06:06:38.901Z,3.80
2022-11-06T06:09:07.229Z,2.13
2022-11-06T06:11:36.967Z,3.27
2022-11-06T06:14:05.229Z,5.00
2022-11-06T06:16:33.493Z,3.57
2022-11-06T06:19:01.757Z,3.30
2022-11-06T06:21:30.030Z,3.00
2022-11-06T06:23:58.276Z,3.23
2022-11-06T06:26:26.585Z,2.50
2022-11-06T06:28:56.260Z,4.57
2022-11-06T06:31:24.736Z,2.77
2022-11-06T06:33:53.015Z,4.53
2022-11-06T06:36:21.289Z,4.27
2022-11-06T06:38:49.569Z,4.93
2022-11-06T06:41:17.842Z,3.93
2022-11-06T06:43:49.071Z,4.83
2022-11-06T06:46:18.923Z,5.40
2022-11-06T06:48:47.225Z,5.40
2022-11-06T06:51:19.676Z,4.40
2022-11-06T06:53:51.755Z,3.80
2022-11-06T06:56:20.075Z,5.70
2022-11-06T06:58:48.379Z,5.30
2022-11-06T07:01:16.709Z,4.40
2022-11-06T07:03:46.419Z,3.87
2022-11-06T07:06:14.715Z,5.70
2022-11-06T07:08:42.963Z,4.30
2022-11-06T07:11:12.259Z,5.83
2022-11-06T07:13:40.560Z,6.23
2022-11-06T07:16:10.376Z,5.80
2022-11-06T07:18:39.195Z,2.67
2022-11-06T07:21:09.956Z,6.13
2022-11-06T07:23:38.660Z,3.30
2022-11-06T07:26:07.428Z,4.67
2022-11-06T07:28:35.913Z,5.00
2022-11-06T07:31:05.326Z,4.70
2022-11-06T07:33:33.589Z,5.80
2022-11-06T07:36:05.404Z,5.20
2022-11-06T07:38:36.086Z,6.67
2022-11-06T07:41:05.262Z,5.13
2022-11-06T07:43:33.825Z,4.50
2022-11-06T07:46:02.638Z,9.70
2022-11-06T07:48:31.031Z,6.40
2022-11-06T07:50:59.508Z,5.40
2022-11-06T07:53:27.815Z,8.20
2022-11-06T07:55:58.035Z,9.27
2022-11-06T07:58:26.675Z,5.37
2022-11-06T08:00:56.188Z,4.07
2022-11-06T08:03:24.869Z,5.43
2022-11-06T08:05:53.402Z,7.17
2022-11-06T08:08:22.132Z,4.93
2022-11-06T08:10:52.081Z,7.43
2022-11-06T08:13:21.750Z,6.27
2022-11-06T08:15:50.000Z,5.17
2022-11-06T08:18:18.359Z,7.63
2022-11-06T08:20:46.675Z,5.33
2022-11-06T08:23:15.248Z,6.37
2022-11-06T08:25:43.491Z,6.43
2022-11-06T08:28:12.121Z,9.37
2022-11-06T08:30:41.990Z,4.10
2022-11-06T08:33:10.390Z,4.40
2022-11-06T08:35:39.053Z,4.77
2022-11-06T08:38:09.727Z,5.27
2022-11-06T08:40:38.257Z,5.23
2022-11-06T08:43:07.808Z,4.83
2022-11-06T08:45:38.254Z,6.43
2022-11-06T08:48:08.423Z,2.97
2022-11-06T08:50:37.465Z,4.27
2022-11-06T08:53:06.517Z,3.80
2022-11-06T08:55:35.243Z,5.07
2022-11-06T08:58:03.877Z,2.93
2022-11-06T09:00:32.291Z,4.10
2022-11-06T09:03:00.788Z,3.13
2022-11-06T09:05:31.093Z,6.00
2022-11-06T09:07:59.582Z,3.07
2022-11-06T09:10:28.562Z,4.40
2022-11-06T09:12:56.836Z,5.00
2022-11-06T09:15:25.131Z,3.60
2022-11-06T09:17:53.893Z,4.53
2022-11-06T09:20:23.065Z,5.40
2022-11-06T09:22:53.117Z,3.57
2022-11-06T09:25:21.859Z,4.00
2022-11-06T09:27:55.707Z,2.80
2022-11-06T09:30:27.462Z,4.43
2022-11-06T09:32:56.640Z,2.60
2022-11-06T09:35:25.894Z,4.00
2022-11-06T09:37:55.566Z,7.10
2022-11-06T09:40:27.918Z,3.10
2022-11-06T09:43:01.576Z,2.73
2022-11-06T09:45:30.547Z,3.00
2022-11-06T09:48:01.791Z,2.70
2022-11-06T09:50:32.034Z,3.30
2022-11-06T09:53:06.439Z,3.77
2022-11-06T09:55:37.803Z,3.33
2022-11-06T09:58:07.377Z,2.20
2022-11-06T10:00:35.634Z,2.77
2022-11-06T10:03:05.892Z,3.60
2022-11-06T10:05:35.073Z,3.50
2022-11-06T10:08:07.216Z,3.33
2022-11-06T10:10:38.850Z,3.03
2022-11-06T10:13:17.451Z,2.00
2022-11-06T10:15:48.353Z,2.20
2022-11-06T10:18:20.605Z,3.17
2022-11-06T10:20:53.360Z,3.13
2022-11-06T10:23:27.567Z,2.60
2022-11-06T10:26:01.352Z,2.53
2022-11-06T10:28:40.256Z,2.30
2022-11-06T10:31:12.977Z,1.83
2022-11-06T10:33:46.413Z,2.10
2022-11-06T10:36:16.194Z,2.70
2022-11-06T10:38:49.139Z,2.50
2022-11-06T10:41:19.065Z,2.40
2022-11-06T10:43:50.845Z,1.93
2022-11-06T10:46:21.001Z,1.57
2022-11-06T10:48:52.069Z,2.70
2022-11-06T10:51:26.561Z,2.13
2022-11-06T10:54:04.131Z,3.27
2022-11-06T10:56:40.287Z,3.03
2022-11-06T10:59:09.185Z,2.63
2022-11-06T11:01:38.541Z,2.47
2022-11-06T11:04:06.903Z,1.70
2022-11-06T11:06:35.156Z,2.40
2022-11-06T11:09:24.763Z,2.30
2022-11-06T11:11:53.026Z,1.67
2022-11-06T11:14:24.829Z,2.10
2022-11-06T11:16:53.441Z,2.20
2022-11-06T11:19:26.047Z,2.23
2022-11-06T11:21:55.235Z,2.47
2022-11-06T11:24:24.855Z,2.90
2022-11-06T11:26:54.049Z,2.50
2022-11-06T11:29:25.030Z,3.23
2022-11-06T11:31:54.782Z,2.00
2022-11-06T11:34:24.989Z,1.80
2022-11-06T11:36:55.054Z,1.70
2022-11-06T11:39:26.516Z,1.73
2022-11-06T11:41:54.820Z,1.83
2022-11-06T11:44:23.512Z,2.60
2022-11-06T11:46:52.672Z,2.40
2022-11-06T11:49:28.441Z,2.00
2022-11-06T11:51:56.972Z,2.33
2022-11-06T11:54:27.820Z,2.50
2022-11-06T11:57:04.050Z,1.90
2022-11-06T11:59:34.785Z,1.90
2022-11-06T12:02:04.237Z,3.00
2022-11-06T12:04:33.724Z,2.30
2022-11-06T12:07:02.711Z,2.20
2022-11-06T12:09:34.690Z,2.53
2022-11-06T12:12:03.380Z,2.13
2022-11-06T12:14:33.220Z,2.10
2022-11-06T12:17:05.347Z,2.87
2022-11-06T12:19:35.208Z,2.70
2022-11-06T12:22:06.575Z,2.63
2022-11-06T12:24:40.104Z,1.93
2022-11-06T12:27:12.773Z,1.90
2022-11-06T12:29:42.912Z,1.80
2022-11-06T12:32:23.811Z,2.17
2022-11-06T12:34:54.478Z,2.10
2022-11-06T12:37:25.340Z,2.03
2022-11-06T12:39:58.873Z,2.27
2022-11-06T12:42:29.638Z,2.60
2022-11-06T12:44:57.933Z,1.70
2022-11-06T12:47:32.303Z,1.60
2022-11-06T12:50:19.178Z,1.67
2022-11-06T12:52:53.278Z,1.70
2022-11-06T12:55:25.498Z,2.77
2022-11-06T12:58:00.012Z,2.10
2022-11-06T13:00:32.085Z,2.57
2022-11-06T13:03:12.556Z,2.50
2022-11-06T13:05:45.099Z,1.70
2022-11-06T13:08:23.295Z,2.30
2022-11-06T13:11:03.103Z,1.87
2022-11-06T13:13:38.417Z,1.20
2022-11-06T13:16:12.066Z,1.50
2022-11-06T13:18:43.085Z,1.70
2022-11-06T13:21:14.220Z,1.40
2022-11-06T13:23:44.775Z,1.53
2022-11-06T13:26:18.336Z,1.07
2022-11-06T13:28:47.956Z,1.17
2022-11-06T13:31:18.642Z,1.47
2022-11-06T13:33:49.061Z,1.60
2022-11-06T13:36:17.770Z,1.17
2022-11-06T13:38:49.236Z,1.80
2022-11-06T13:41:21.887Z,1.00
2022-11-06T13:43:52.748Z,2.17
2022-11-06T13:46:26.160Z,1.83
2022-11-06T13:48:58.399Z,2.00
2022-11-06T13:51:30.563Z,2.00
2022-11-06T13:54:04.064Z,2.00
2022-11-06T13:56:39.691Z,2.03
2022-11-06T13:59:26.495Z,2.47
2022-11-06T14:02:03.558Z,2.20
2022-11-06T14:04:39.430Z,3.03
2022-11-06T14:07:09.110Z,2.53
2022-11-06T14:09:38.017Z,2.27
2022-11-06T14:12:14.916Z,1.70
2022-11-06T14:14:44.157Z,1.50
2022-11-06T14:17:13.873Z,2.07
2022-11-06T14:19:47.656Z,2.00
2022-11-06T14:22:19.288Z,1.93
2022-11-06T14:24:47.559Z,1.60
2022-11-06T14:27:37.183Z,2.87
2022-11-06T14:30:07.752Z,3.13
2022-11-06T14:32:46.302Z,2.88
2022-11-06T14:35:50.194Z,2.90
2022-11-06T14:38:20.087Z,2.63
2022-11-06T14:40:48.356Z,2.13
2022-11-06T14:43:21.012Z,2.80
2022-11-06T14:45:52.936Z,2.73
2022-11-06T14:48:27.640Z,2.53
2022-11-06T14:50:55.911Z,2.37
2022-11-06T14:53:25.813Z,3.20
2022-11-06T14:56:01.777Z,2.73
2022-11-06T14:58:33.567Z,4.50
2022-11-06T15:01:05.302Z,3.60
2022-11-06T15:03:36.847Z,2.30
2022-11-06T15:06:09.955Z,4.13
2022-11-06T15:08:54.927Z,2.40
2022-11-06T15:11:47.768Z,2.60
2022-11-06T15:14:35.255Z,3.10
2022-11-06T15:17:07.587Z,3.27
2022-11-06T15:19:39.514Z,3.93
2022-11-06T15:22:10.065Z,3.97
2022-11-06T15:24:40.290Z,3.60
2022-11-06T15:27:10.516Z,2.93
2022-11-06T15:29:42.010Z,4.50
2022-11-06T15:32:14.473Z,4.57
2022-11-06T15:34:44.274Z,3.37
2022-11-06T15:37:14.027Z,4.33
2022-11-06T15:39:42.984Z,4.53
2022-11-06T15:42:12.044Z,4.23
2022-11-06T15:44:41.906Z,4.20
2022-11-06T15:47:21.350Z,4.07
2022-11-06T15:49:49.637Z,3.17
2022-11-06T15:52:18.734Z,3.87
2022-11-06T15:54:49.195Z,4.17
2022-11-06T15:57:19.176Z,3.83
2022-11-06T15:59:47.785Z,9.70
2022-11-06T16:02:18.128Z,8.00
2022-11-06T16:04:48.522Z,4.90
2022-11-06T16:07:17.871Z,6.00
2022-11-06T16:09:47.020Z,6.10
2022-11-06T16:12:16.759Z,5.70
2022-11-06T16:14:45.616Z,5.20
2022-11-06T16:17:16.875Z,4.00
2022-11-06T16:19:46.216Z,6.10
2022-11-06T16:22:17.027Z,7.20
2022-11-06T16:24:47.535Z,5.37
2022-11-06T16:27:16.320Z,4.90
2022-11-06T16:29:47.889Z,6.17
2022-11-06T16:32:17.492Z,5.10
2022-11-06T16:34:46.878Z,4.70
2022-11-06T16:37:31.621Z,5.13
2022-11-06T16:40:01.359Z,3.80
2022-11-06T16:42:30.896Z,5.93
2022-11-06T16:45:03.412Z,3.30
2022-11-06T16:47:31.724Z,4.50
2022-11-06T16:50:01.931Z,5.70
2022-11-06T16:52:31.589Z,6.27
2022-11-06T16:55:03.358Z,4.10
2022-11-06T16:57:33.840Z,6.50
2022-11-06T17:00:03.560Z,4.90
2022-11-06T17:02:33.883Z,5.37
2022-11-06T17:05:09.803Z,6.30
2022-11-06T17:07:38.104Z,6.10
2022-11-06T17:10:25.267Z,6.40
2022-11-06T17:12:54.913Z,5.50
2022-11-06T17:15:23.214Z,8.40
2022-11-06T17:17:51.749Z,6.00
2022-11-06T17:20:21.008Z,6.07
2022-11-06T17:22:50.786Z,6.47
2022-11-06T17:25:19.140Z,4.63
2022-11-06T17:27:47.394Z,5.27
2022-11-06T17:30:17.588Z,5.83
2022-11-06T17:32:45.859Z,4.20
2022-11-06T17:35:14.128Z,3.83
2022-11-06T17:37:42.399Z,3.90
2022-11-06T17:40:11.330Z,4.73
2022-11-06T17:42:39.584Z,5.27
2022-11-06T17:45:08.169Z,5.00
2022-11-06T17:47:37.858Z,3.50
2022-11-06T17:50:06.444Z,4.43
2022-11-06T17:52:34.692Z,3.47
2022-11-06T17:55:02.976Z,3.07
2022-11-06T17:57:31.272Z,3.83
2022-11-06T17:59:59.552Z,5.70
2022-11-06T18:02:48.034Z,3.27
2022-11-06T18:05:18.355Z,3.03
2022-11-06T18:07:46.679Z,2.70
2022-11-06T18:10:14.932Z,4.23
2022-11-06T18:12:43.188Z,3.27
2022-11-06T18:15:11.793Z,3.33
2022-11-06T18:17:40.041Z,2.80
2022-11-06T18:20:08.952Z,2.80
2022-11-06T18:22:38.579Z,5.43
2022-11-06T18:25:07.244Z,3.70
2022-11-06T18:27:35.499Z,2.60
2022-11-06T18:30:03.761Z,3.90
2022-11-06T18:32:32.083Z,3.20
2022-11-06T18:35:01.013Z,1.93
2022-11-06T18:37:29.280Z,2.10
2022-11-06T18:39:58.974Z,2.90
2022-11-06T18:42:27.896Z,2.60
2022-11-06T18:44:56.218Z,3.70
2022-11-06T18:47:24.471Z,2.07
2022-11-06T18:49:52.749Z,2.13
2022-11-06T18:52:44.310Z,1.83
2022-11-06T18:55:11.223Z,2.23
2022-11-06T18:57:39.489Z,2.13
2022-11-06T19:00:08.501Z,2.63
2022-11-06T19:02:36.880Z,1.83
2022-11-06T19:05:05.463Z,2.60
2022-11-06T19:07:34.589Z,2.93
2022-11-06T19:10:02.873Z,2.10
2022-11-06T19:12:32.505Z,2.00
2022-11-06T19:15:00.846Z,1.93
2022-11-06T19:17:29.099Z,2.07
2022-11-06T19:19:57.363Z,2.30
2022-11-06T19:22:25.924Z,2.30
2022-11-06T19:24:54.169Z,2.20
2022-11-06T19:27:22.428Z,1.97
2022-11-06T19:29:52.607Z,1.90
2022-11-06T19:32:20.870Z,2.60
2022-11-06T19:34:49.109Z,2.20
2022-11-06T19:37:17.353Z,3.43
2022-11-06T19:39:45.616Z,2.83
2022-11-06T19:42:13.859Z,2.10
2022-11-06T19:44:42.149Z,3.53
2022-11-06T19:47:11.764Z,2.80
2022-11-06T19:49:40.054Z,2.20
2022-11-06T19:52:41.173Z,2.33
2022-11-06T19:55:26.914Z,1.90
2022-11-06T19:57:45.151Z,1.70
2022-11-06T20:00:13.983Z,2.40
2022-11-06T20:02:43.698Z,2.10
2022-11-06T20:05:12.036Z,2.50
2022-11-06T20:07:42.459Z,2.53
2022-11-06T20:10:11.482Z,1.57
2022-11-06T20:12:39.800Z,2.93
2022-11-06T20:15:08.409Z,1.70
2022-11-06T20:17:36.695Z,2.23
2022-11-06T20:20:06.742Z,1.43
2022-11-06T20:22:35.037Z,1.80
2022-11-06T20:25:03.353Z,1.77
2022-11-06T20:27:31.623Z,1.60
2022-11-06T20:30:00.154Z,2.80
2022-11-06T20:32:28.446Z,1.67
2022-11-06T20:34:56.734Z,1.30
2022-11-06T20:37:26.344Z,1.20
2022-11-06T20:39:54.607Z,1.67
2022-11-06T20:42:22.862Z,0.80
2022-11-06T20:44:51.150Z,1.67
2022-11-06T20:47:19.457Z,1.90
2022-11-06T20:49:47.707Z,1.60
2022-11-06T20:52:15.988Z,1.90
2022-11-06T20:54:47.701Z,1.70
2022-11-06T20:57:16.533Z,1.80
2022-11-06T20:59:44.778Z,2.00
2022-11-06T21:02:13.184Z,1.07
2022-11-06T21:04:41.542Z,1.67
2022-11-06T21:07:09.817Z,1.27
2022-11-06T21:09:38.290Z,1.73
2022-11-06T21:12:08.353Z,1.50
2022-11-06T21:14:36.740Z,1.93
2022-11-06T21:17:04.973Z,2.40
2022-11-06T21:19:33.623Z,2.00
2022-11-06T21:22:01.864Z,1.33
2022-11-06T21:24:30.156Z,1.53
2022-11-06T21:26:58.454Z,1.80
2022-11-06T21:29:28.062Z,1.23
2022-11-06T21:31:56.326Z,1.17
2022-11-06T21:34:24.564Z,2.47
2022-11-06T21:36:54.215Z,1.30
2022-11-06T21:39:25.238Z,1.43
2022-11-06T21:41:53.816Z,2.00
2022-11-06T21:44:22.132Z,1.87
2022-11-06T21:46:51.754Z,1.33
2022-11-06T21:49:20.030Z,1.33
2022-11-06T21:51:48.398Z,1.77
2022-11-06T21:54:34.134Z,1.53
2022-11-06T21:57:02.789Z,1.77
2022-11-06T21:59:31.759Z,1.37
2022-11-06T22:02:01.500Z,1.47
2022-11-06T22:04:29.935Z,2.00
2022-11-06T22:06:58.298Z,1.33
2022-11-06T22:09:27.774Z,1.30
2022-11-06T22:11:56.078Z,1.23
2022-11-06T22:14:24.380Z,1.50
2022-11-06T22:16:52.635Z,1.63
2022-11-06T22:19:22.294Z,1.53
2022-11-06T22:21:50.601Z,1.30
2022-11-06T22:24:18.851Z,1.80
2022-11-06T22:26:47.140Z,1.63
2022-11-06T22:29:15.757Z,1.83
2022-11-06T22:31:44.063Z,1.03
2022-11-06T22:34:12.538Z,0.87
2022-11-06T22:36:42.667Z,1.50
2022-11-06T22:39:11.781Z,1.60
2022-11-06T22:41:40.158Z,1.63
2022-11-06T22:44:08.588Z,1.23
2022-11-06T22:46:36.871Z,1.43
2022-11-06T22:49:05.476Z,1.50
2022-11-06T22:51:34.312Z,1.00
2022-11-06T22:54:04.186Z,1.07
2022-11-06T22:56:33.315Z,1.40
2022-11-06T22:59:03.093Z,1.03
2022-11-06T23:01:34.957Z,1.23
2022-11-06T23:04:08.540Z,1.50
2022-11-06T23:06:37.332Z,1.43
2022-11-06T23:09:06.973Z,1.43
2022-11-06T23:11:35.284Z,1.20
2022-11-06T23:14:08.541Z,1.53
2022-11-06T23:16:54.950Z,0.97
2022-11-06T23:19:23.319Z,1.30
2022-11-06T23:21:52.417Z,1.10
2022-11-06T23:24:22.153Z,1.60
2022-11-06T23:26:50.479Z,1.07
2022-11-06T23:29:18.735Z,1.87
2022-11-06T23:31:46.991Z,1.13
2022-11-06T23:34:15.267Z,1.50
2022-11-06T23:36:43.498Z,0.90
2022-11-06T23:39:11.761Z,1.17
2022-11-06T23:41:45.635Z,1.20
2022-11-06T23:44:32.499Z,1.40
2022-11-06T23:47:00.760Z,1.10
2022-11-06T23:49:29.074Z,1.10
2022-11-06T23:51:57.371Z,1.20
2022-11-06T23:54:26.386Z,0.90
2022-11-06T23:56:56.211Z,1.30
2022-11-06T23:59:24.574Z,1.60
